createdAt,value
2022-10-18T00:00:15.990Z,4.25
2022-10-18T00:05:18.953Z,3.85
2022-10-18T00:10:21.776Z,3.55
2022-10-18T00:15:25.974Z,3.55
2022-10-18T00:20:28.694Z,3.53
2022-10-18T00:25:31.462Z,3.78
2022-10-18T00:30:35.608Z,3.58
2022-10-18T00:35:38.292Z,3.42
2022-10-18T00:40:40.995Z,3.35
2022-10-18T00:45:45.263Z,3.47
2022-10-18T00:50:48.684Z,3.30
2022-10-18T00:55:51.961Z,3.55
2022-10-18T01:00:56.116Z,3.38
2022-10-18T01:05:58.944Z,2.92
2022-10-18T01:11:14.526Z,3.30
2022-10-18T01:16:23.129Z,3.30
2022-10-18T01:21:37.097Z,3.10
2022-10-18T01:26:54.026Z,3.13
2022-10-18T01:32:00.111Z,2.72
2022-10-18T01:37:04.520Z,3.30
2022-10-18T01:42:08.922Z,3.03
2022-10-18T01:47:14.604Z,3.05
2022-10-18T01:52:17.736Z,2.75
2022-10-18T01:57:25.529Z,2.70
2022-10-18T02:02:40.246Z,2.80
2022-10-18T02:07:55.327Z,2.80
2022-10-18T02:13:09.524Z,2.42
2022-10-18T02:18:16.407Z,2.90
2022-10-18T02:23:22.614Z,2.70
2022-10-18T02:28:25.547Z,2.38
2022-10-18T02:33:34.276Z,2.42
2022-10-18T02:38:37.659Z,2.58
2022-10-18T02:43:40.344Z,2.17
2022-10-18T02:48:44.414Z,2.50
2022-10-18T02:53:47.127Z,2.60
2022-10-18T02:58:49.810Z,2.60
2022-10-18T03:03:53.855Z,2.28
2022-10-18T03:08:56.620Z,2.22
2022-10-18T03:13:59.409Z,1.98
2022-10-18T03:19:03.533Z,2.20
2022-10-18T03:24:07.393Z,2.63
2022-10-18T03:29:10.439Z,2.40
2022-10-18T03:34:15.695Z,2.15
2022-10-18T03:39:18.395Z,2.17
2022-10-18T03:44:21.169Z,2.28
2022-10-18T03:49:25.299Z,2.70
2022-10-18T03:54:27.986Z,2.38
2022-10-18T03:59:30.725Z,2.28
2022-10-18T04:04:34.821Z,2.47
2022-10-18T04:09:37.598Z,2.03
2022-10-18T04:14:40.389Z,2.35
2022-10-18T04:19:44.488Z,2.30
2022-10-18T04:24:47.210Z,2.10
2022-10-18T04:29:50.016Z,2.20
2022-10-18T04:34:54.140Z,2.25
2022-10-18T04:39:56.874Z,2.17
2022-10-18T04:44:59.689Z,2.50
2022-10-18T04:50:03.802Z,1.90
2022-10-18T04:55:07.488Z,2.00
2022-10-18T05:00:10.881Z,1.88
2022-10-18T05:05:14.965Z,1.80
2022-10-18T05:10:17.791Z,2.03
2022-10-18T05:15:20.543Z,2.10
2022-10-18T05:20:24.716Z,2.00
2022-10-18T05:25:27.460Z,1.90
2022-10-18T05:30:30.189Z,2.20
2022-10-18T05:35:34.604Z,2.20
2022-10-18T05:40:39.295Z,2.00
2022-10-18T05:45:48.468Z,1.70
2022-10-18T05:50:52.540Z,2.00
2022-10-18T05:55:55.295Z,2.05
2022-10-18T06:01:00.764Z,2.00
2022-10-18T06:06:07.101Z,1.85
2022-10-18T06:11:11.011Z,1.98
2022-10-18T06:16:14.972Z,1.98
2022-10-18T06:21:19.395Z,2.05
2022-10-18T06:26:22.625Z,1.88
2022-10-18T06:31:25.340Z,1.90
2022-10-18T06:36:29.716Z,2.03
2022-10-18T06:41:32.421Z,1.88
2022-10-18T06:46:53.498Z,1.95
2022-10-18T06:51:57.550Z,1.90
2022-10-18T06:57:02.548Z,1.88
2022-10-18T07:02:05.371Z,1.98
2022-10-18T07:07:09.480Z,1.65
2022-10-18T07:12:12.179Z,2.00
2022-10-18T07:17:15.063Z,2.03
2022-10-18T07:22:19.149Z,1.90
2022-10-18T07:27:21.820Z,2.10
2022-10-18T07:32:24.614Z,2.60
2022-10-18T07:37:30.203Z,2.38
2022-10-18T07:42:33.075Z,2.60
2022-10-18T07:47:35.978Z,2.80
2022-10-18T07:52:40.500Z,2.58
2022-10-18T07:57:43.183Z,2.40
2022-10-18T08:02:45.889Z,2.60
2022-10-18T08:07:50.018Z,2.72
2022-10-18T08:12:52.883Z,2.50
2022-10-18T08:17:55.563Z,2.72
2022-10-18T08:23:00.614Z,2.25
2022-10-18T08:28:03.511Z,2.58
2022-10-18T08:33:06.331Z,2.88
2022-10-18T08:38:16.472Z,2.88
2022-10-18T08:43:28.408Z,2.90
2022-10-18T08:48:36.738Z,2.70
2022-10-18T08:53:49.088Z,2.85
2022-10-18T08:58:52.082Z,2.97
2022-10-18T09:04:22.098Z,2.70
2022-10-18T09:09:34.582Z,3.17
2022-10-18T09:14:54.336Z,2.78
2022-10-18T09:20:07.314Z,3.20
2022-10-18T09:25:18.546Z,2.95
2022-10-18T09:30:30.387Z,3.28
2022-10-18T09:35:40.896Z,3.38
2022-10-18T09:40:52.251Z,3.10
2022-10-18T09:45:55.650Z,3.30
2022-10-18T09:51:00.145Z,3.30
2022-10-18T09:56:07.160Z,3.35
2022-10-18T10:01:11.599Z,3.65
2022-10-18T10:06:19.140Z,3.40
2022-10-18T10:11:35.637Z,3.30
2022-10-18T10:16:48.966Z,3.70
2022-10-18T10:21:53.344Z,3.47
2022-10-18T10:27:06.127Z,3.65
2022-10-18T10:32:13.774Z,3.97
2022-10-18T10:37:29.105Z,3.65
2022-10-18T10:42:34.486Z,3.75
2022-10-18T10:47:37.948Z,4.13
2022-10-18T10:52:41.448Z,3.50
2022-10-18T10:57:47.481Z,3.88
2022-10-18T11:02:59.418Z,4.15
2022-10-18T11:08:11.078Z,4.10
2022-10-18T11:13:25.132Z,4.10
2022-10-18T11:18:31.209Z,4.03
2022-10-18T11:23:34.809Z,3.97
2022-10-18T11:28:50.139Z,4.00
2022-10-18T11:34:09.193Z,3.67
2022-10-18T11:39:19.347Z,4.43
2022-10-18T11:44:28.399Z,4.03
2022-10-18T11:50:00.840Z,3.78
2022-10-18T11:55:13.726Z,3.70
2022-10-18T12:00:40.294Z,3.50
2022-10-18T12:05:44.939Z,3.67
2022-10-18T12:11:06.640Z,3.50
2022-10-18T12:16:11.910Z,3.70
2022-10-18T12:21:14.700Z,3.90
2022-10-18T12:26:18.284Z,5.47
2022-10-18T12:31:26.119Z,5.60
2022-10-18T12:36:48.860Z,5.90
2022-10-18T12:41:54.306Z,6.70
2022-10-18T12:46:59.478Z,7.07
2022-10-18T12:52:04.699Z,6.90
2022-10-18T12:57:22.918Z,6.60
2022-10-18T13:02:29.590Z,6.68
2022-10-18T13:07:42.994Z,6.00
2022-10-18T13:12:59.497Z,6.28
2022-10-18T13:18:09.735Z,5.85
2022-10-18T13:23:26.383Z,6.35
2022-10-18T13:28:33.832Z,5.88
2022-10-18T13:33:39.601Z,5.97
2022-10-18T13:38:48.410Z,6.05
2022-10-18T13:44:12.220Z,6.15
2022-10-18T13:49:28.972Z,6.20
2022-10-18T13:54:44.378Z,6.30
2022-10-18T14:00:05.508Z,5.70
2022-10-18T14:05:26.767Z,5.97
2022-10-18T14:10:50.133Z,5.82
2022-10-18T14:16:05.982Z,6.38
2022-10-18T14:21:16.837Z,6.68
2022-10-18T14:26:22.771Z,6.10
2022-10-18T14:31:25.528Z,6.13
2022-10-18T14:36:35.471Z,6.53
2022-10-18T14:41:41.134Z,6.63
2022-10-18T14:46:44.833Z,6.53
2022-10-18T14:51:52.030Z,7.07
2022-10-18T14:56:54.873Z,6.57
2022-10-18T15:01:59.320Z,7.22
2022-10-18T15:07:05.613Z,6.40
2022-10-18T15:12:08.559Z,6.40
2022-10-18T15:17:15.370Z,6.53
2022-10-18T15:22:32.456Z,6.35
2022-10-18T15:27:37.725Z,6.45
2022-10-18T15:32:48.765Z,6.35
2022-10-18T15:37:53.056Z,6.25
2022-10-18T15:42:57.042Z,6.05
2022-10-18T15:48:01.531Z,6.38
2022-10-18T15:53:25.373Z,6.35
2022-10-18T15:58:31.909Z,6.45
2022-10-18T16:03:35.854Z,6.28
2022-10-18T16:08:41.750Z,6.00
2022-10-18T16:13:45.086Z,7.20
2022-10-18T16:18:48.025Z,6.78
2022-10-18T16:23:52.081Z,6.45
2022-10-18T16:28:55.335Z,7.07
2022-10-18T16:33:58.743Z,6.93
2022-10-18T16:39:07.551Z,7.07
2022-10-18T16:44:10.215Z,6.63
2022-10-18T16:54:24.569Z,7.30
2022-10-18T16:59:28.766Z,7.05
2022-10-18T17:04:31.420Z,6.95
2022-10-18T17:09:36.875Z,7.25
2022-10-18T17:14:39.668Z,7.40
2022-10-18T17:19:42.340Z,7.00
2022-10-18T17:24:46.373Z,6.80
2022-10-18T17:29:49.070Z,8.25
2022-10-18T17:34:51.776Z,8.93
2022-10-18T17:39:55.869Z,8.73
2022-10-18T17:44:58.620Z,8.70
2022-10-18T17:50:01.307Z,9.07
2022-10-18T17:55:05.894Z,7.72
2022-10-18T18:00:11.565Z,8.45
2022-10-18T18:05:17.407Z,7.68
2022-10-18T18:10:21.495Z,8.30
2022-10-18T18:15:24.214Z,8.20
2022-10-18T18:20:27.217Z,8.13
2022-10-18T18:25:31.293Z,7.35
2022-10-18T18:30:33.982Z,7.18
2022-10-18T18:35:36.629Z,7.25
2022-10-18T18:40:40.678Z,7.57
2022-10-18T18:45:51.343Z,7.40
2022-10-18T18:50:54.136Z,7.60
2022-10-18T18:56:03.811Z,7.80
2022-10-18T19:01:08.740Z,7.38
2022-10-18T19:06:14.210Z,6.47
2022-10-18T19:11:20.808Z,7.15
2022-10-18T19:16:25.706Z,6.95
2022-10-18T19:21:31.007Z,6.55
2022-10-18T19:26:37.780Z,6.95
2022-10-18T19:31:40.855Z,7.10
2022-10-18T19:36:44.755Z,6.30
2022-10-18T19:41:49.477Z,6.82
2022-10-18T19:46:52.308Z,6.53
2022-10-18T19:51:55.016Z,6.38
2022-10-18T19:56:59.120Z,6.40
2022-10-18T20:02:01.894Z,6.43
2022-10-18T20:07:04.634Z,6.20
2022-10-18T20:12:08.732Z,6.90
2022-10-18T20:17:12.927Z,6.32
2022-10-18T20:22:15.743Z,6.38
2022-10-18T20:27:19.727Z,6.53
2022-10-18T20:32:22.397Z,5.65
2022-10-18T20:37:25.085Z,5.78
2022-10-18T20:42:29.130Z,5.97
2022-10-18T20:47:32.015Z,6.32
2022-10-18T20:52:35.027Z,5.95
2022-10-18T20:57:39.282Z,6.30
2022-10-18T21:02:42.082Z,6.85
2022-10-18T21:07:44.753Z,6.50
2022-10-18T21:12:49.557Z,6.38
2022-10-18T21:17:52.704Z,6.13
2022-10-18T21:22:57.337Z,6.78
2022-10-18T21:28:01.458Z,6.03
2022-10-18T21:33:04.484Z,6.43
2022-10-18T21:38:07.340Z,5.95
2022-10-18T21:43:11.530Z,6.32
2022-10-18T21:48:14.272Z,6.18
2022-10-18T21:53:17.113Z,5.70
2022-10-18T21:58:21.470Z,5.80
2022-10-18T22:03:24.198Z,6.30
2022-10-18T22:08:26.972Z,6.30
2022-10-18T22:13:31.114Z,6.38
2022-10-18T22:18:34.727Z,6.25
2022-10-18T22:23:39.177Z,5.85
2022-10-18T22:28:44.506Z,6.50
2022-10-18T22:33:48.055Z,6.70
2022-10-18T22:38:51.074Z,6.43
2022-10-18T22:43:57.344Z,5.88
2022-10-18T22:49:02.407Z,5.82
2022-10-18T22:54:05.226Z,6.18
2022-10-18T22:59:09.512Z,6.18
2022-10-18T23:04:12.188Z,6.10
2022-10-18T23:09:14.939Z,5.68
2022-10-18T23:14:19.103Z,6.22
2022-10-18T23:19:21.794Z,5.80
2022-10-18T23:24:24.476Z,6.00
2022-10-18T23:29:28.761Z,5.47
2022-10-18T23:34:31.518Z,5.35
2022-10-18T23:39:34.266Z,4.95
2022-10-18T23:44:38.330Z,5.00
2022-10-18T23:49:41.068Z,5.30
2022-10-18T23:59:48.699Z,4.90
